.
WxDataArchive / Data Records for 2014-05-19
2014-05-18 May 2014 2014-05-20

Data Records for Monday, 19 May 2014

Time	Temp	Chill	HIndex	Humid	Dewpt	 Wind 	HiWind	WindDir	Rain 	Barom
-----	----	-----	------	-----	-----	------	------	-------	-----	-----
00:00	46.5	46.5	46.5	72	38.0	0	0	---	0.00	30.237 
00:05	46.4	46.4	46.4	73	38.2	0	0	---	0.00	30.237 
00:10	46.2	46.2	46.2	73	38.0	0	0	---	0.00	30.237 
00:15	46.1	46.1	46.1	73	37.9	0	0	---	0.00	30.238 
00:20	46.0	46.0	46.0	74	38.2	0	0	---	0.00	30.238 
00:25	45.8	45.8	45.8	73	37.6	0	0	---	0.00	30.238 
00:30	45.7	45.7	45.7	73	37.5	0	0	---	0.00	30.239 
00:35	45.4	45.4	45.4	73	37.3	0	0	---	0.00	30.239 
00:40	45.4	45.4	45.4	74	37.6	0	0	---	0.00	30.239 
00:45	45.2	45.2	45.2	75	37.8	0	0	---	0.00	30.238 
00:50	45.1	45.1	45.1	75	37.7	0	0	---	0.00	30.238 
00:55	44.9	44.9	44.9	76	37.8	0	0	---	0.00	30.238 
01:00	44.8	44.8	44.8	76	37.7	0	0	---	0.00	30.236 
01:05	44.6	44.6	44.6	76	37.5	0	0	---	0.00	30.236 
01:10	44.6	44.6	44.6	77	37.8	0	0	---	0.00	30.236 
01:15	44.5	44.5	44.5	77	37.7	0	0	---	0.00	30.232 
01:20	44.3	44.3	44.3	77	37.6	0	0	---	0.00	30.232 
01:25	44.2	44.2	44.2	77	37.5	0	0	---	0.00	30.232 
01:30	44.1	44.1	44.1	78	37.7	0	0	---	0.00	30.230 
01:35	43.9	43.9	43.9	79	37.8	0	0	---	0.00	30.230 
01:40	43.8	43.8	43.8	79	37.7	0	0	---	0.00	30.230 
01:45	43.6	43.6	43.6	79	37.5	0	0	---	0.00	30.228 
01:50	43.6	43.6	43.6	80	37.8	0	0	---	0.00	30.228 
01:55	43.5	43.5	43.5	80	37.7	0	0	---	0.00	30.228 
02:00	43.3	43.3	43.3	81	37.9	0	0	---	0.00	30.229 
02:05	43.2	43.2	43.2	81	37.8	0	0	---	0.00	30.229 
02:10	43.1	43.1	43.1	81	37.7	0	0	---	0.00	30.229 
02:15	43.1	43.1	43.1	81	37.7	0	0	---	0.00	30.223 
02:20	42.9	42.9	42.9	81	37.5	0	0	---	0.00	30.223 
02:25	42.8	42.8	42.8	82	37.7	0	0	---	0.00	30.223 
02:30	42.8	42.8	42.8	82	37.7	0	0	---	0.00	30.224 
02:35	42.8	42.8	42.8	83	38.0	0	0	---	0.00	30.224 
02:40	42.6	42.6	42.6	83	37.8	0	0	---	0.00	30.224 
02:45	42.5	42.5	42.5	84	38.0	0	0	---	0.00	30.223 
02:50	42.3	42.3	42.3	84	37.8	0	0	---	0.00	30.223 
02:55	42.3	42.3	42.3	84	37.8	0	0	---	0.00	30.223 
03:00	42.2	42.2	42.2	84	37.7	0	0	---	0.00	30.227 
03:05	42.2	42.2	42.2	84	37.7	0	0	---	0.00	30.227 
03:10	42.1	42.1	42.1	84	37.6	0	0	---	0.00	30.227 
03:15	42.1	42.1	42.1	84	37.6	0	0	---	0.00	30.233 
03:20	41.9	41.9	41.9	85	37.7	0	0	---	0.00	30.233 
03:25	41.8	41.8	41.8	85	37.6	0	0	---	0.00	30.233 
03:30	41.8	41.8	41.8	85	37.6	0	0	---	0.00	30.236 
03:35	41.6	41.6	41.6	85	37.4	0	0	---	0.00	30.236 
03:40	41.5	41.5	41.5	86	37.6	0	0	---	0.00	30.236 
03:45	41.5	41.5	41.5	86	37.6	0	0	---	0.00	30.237 
03:50	41.3	41.3	41.3	86	37.4	0	0	---	0.00	30.237 
03:55	41.2	41.2	41.2	86	37.3	0	0	---	0.00	30.237 
04:00	41.2	41.2	41.2	86	37.3	0	0	---	0.00	30.244 
04:05	41.1	41.1	41.1	87	37.5	0	0	---	0.00	30.244 
04:10	41.1	41.1	41.1	87	37.5	0	0	---	0.00	30.244 
04:15	40.9	40.9	40.9	87	37.3	0	0	---	0.00	30.244 
04:20	40.9	40.9	40.9	87	37.3	0	0	---	0.00	30.244 
04:25	40.8	40.8	40.8	87	37.2	0	0	---	0.00	30.244 
04:30	40.6	40.6	40.6	87	37.0	0	0	---	0.00	30.250 
04:35	40.6	40.6	40.6	88	37.3	0	0	---	0.00	30.250 
04:40	40.5	40.5	40.5	88	37.2	0	0	---	0.00	30.250 
04:45	40.5	40.5	40.5	88	37.2	0	0	---	0.00	30.252 
04:50	40.3	40.3	40.3	88	37.0	0	0	---	0.00	30.252 
04:55	40.3	40.3	40.3	88	37.0	0	0	---	0.00	30.252 
05:00	40.2	40.2	40.2	88	36.9	0	0	---	0.00	30.254 
05:05	40.1	40.1	40.1	88	36.8	0	0	---	0.00	30.254 
05:10	40.1	40.1	40.1	88	36.8	0	0	---	0.00	30.254 
05:15	39.9	39.9	39.9	88	36.6	0	0	---	0.00	30.254 
05:20	39.8	39.8	39.8	88	36.5	0	0	---	0.00	30.254 
05:25	39.6	39.6	39.6	88	36.3	0	0	---	0.00	30.254 
05:30	39.5	39.5	39.5	88	36.2	0	0	---	0.00	30.258 
05:35	39.3	39.3	39.3	88	36.0	0	0	---	0.00	30.258 
05:40	39.2	39.2	39.2	89	36.2	0	0	---	0.00	30.258 
05:45	39.2	39.2	39.2	89	36.2	0	0	---	0.00	30.259 
05:50	39.1	39.1	39.1	89	36.1	0	0	---	0.00	30.259 
05:55	39.1	39.1	39.1	89	36.1	0	0	---	0.00	30.259 
06:00	39.1	39.1	39.1	89	36.1	0	0	---	0.00	30.266 
06:05	39.1	39.1	39.1	89	36.1	0	0	---	0.00	30.266 
06:10	38.9	38.9	38.9	89	35.9	0	0	---	0.00	30.266 
06:15	38.8	38.8	38.8	89	35.8	0	0	---	0.00	30.274 
06:20	38.8	38.8	38.8	90	36.1	0	0	---	0.00	30.274 
06:25	38.9	38.9	38.9	90	36.2	0	0	---	0.00	30.274 
06:30	38.9	38.9	38.9	90	36.2	0	0	---	0.00	30.275 
06:35	38.9	38.9	38.9	90	36.2	0	0	---	0.00	30.275 
06:40	38.8	38.8	38.8	90	36.1	0	0	---	0.00	30.275 
06:45	38.9	38.9	38.9	90	36.2	0	0	---	0.00	30.278 
06:50	38.9	38.9	38.9	91	36.5	0	0	---	0.00	30.278 
06:55	39.1	39.1	39.1	91	36.7	0	0	---	0.00	30.278 
07:00	39.2	39.2	39.2	91	36.8	0	0	---	0.00	30.280 
07:05	39.3	39.3	39.3	91	36.9	0	0	---	0.00	30.280 
07:10	39.5	39.5	39.5	91	37.1	0	0	---	0.00	30.280 
07:15	39.8	39.8	39.8	91	37.4	0	0	---	0.00	30.279 
07:20	40.2	40.2	40.2	92	38.1	0	0	---	0.00	30.279 
07:25	40.8	40.8	40.8	92	38.7	0	0	---	0.00	30.279 
07:30	41.3	41.3	41.3	92	39.2	0	0	---	0.00	30.287 
07:35	41.9	41.9	41.9	92	39.7	0	0	---	0.00	30.287 
07:40	42.6	42.6	42.6	92	40.4	0	0	---	0.00	30.287 
07:45	43.6	43.6	43.6	92	41.4	0	0	---	0.00	30.283 
07:50	44.5	44.5	44.5	92	42.3	0	0	---	0.00	30.283 
07:55	45.7	45.7	45.7	89	42.6	0	0	---	0.00	30.283 
08:00	47.0	47.0	47.0	82	41.8	0	1	22	0.00	30.277 
08:05	48.8	48.8	48.8	77	41.9	0	0	---	0.00	30.277 
08:10	50.2	50.2	50.2	75	42.6	0	1	22	0.00	30.277 
08:15	51.6	51.6	51.6	68	41.4	0	1	22	0.00	30.279 
08:20	52.9	52.9	52.9	64	41.1	0	1	22	0.00	30.279 
08:25	53.9	53.9	53.9	61	40.8	0	1	22	0.00	30.279 
08:30	54.8	54.8	54.8	58	40.3	0	1	22	0.00	30.281 
08:35	55.7	55.7	55.7	58	41.2	0	1	22	0.00	30.281 
08:40	56.2	56.2	56.2	54	39.8	0	2	22	0.00	30.281 
08:45	56.7	56.7	56.7	54	40.2	0	1	22	0.00	30.282 
08:50	57.2	57.2	57.2	54	40.7	0	1	22	0.00	30.282 
08:55	57.8	57.8	57.8	53	40.8	0	2	22	0.00	30.282 
09:00	58.3	58.3	58.3	51	40.3	0	3	22	0.00	30.279 
09:05	58.9	58.9	58.9	50	40.3	0	2	22	0.00	30.279 
09:10	59.3	59.3	59.3	48	39.6	1	3	22	0.00	30.279 
09:15	59.8	59.8	59.8	50	41.1	0	2	22	0.00	30.281 
09:20	60.5	60.5	60.5	52	42.8	0	1	22	0.00	30.281 
09:25	61.3	61.3	61.3	44	39.2	0	2	22	0.00	30.281 
09:30	61.6	61.6	61.6	42	38.3	1	3	45	0.00	30.279 
09:35	61.8	61.8	61.8	44	39.7	1	3	45	0.00	30.279 
09:40	61.6	61.6	61.6	43	38.9	0	2	45	0.00	30.279 
09:45	62.4	62.4	62.4	41	38.4	0	1	45	0.00	30.278 
09:50	62.7	62.7	62.7	38	36.7	1	2	45	0.00	30.278 
09:55	62.6	62.6	62.6	41	38.6	0	1	45	0.00	30.278 
10:00	62.9	62.9	62.9	44	40.6	0	1	45	0.00	30.275 
10:05	63.1	63.1	63.1	38	37.1	0	1	45	0.00	30.275 
10:10	63.5	63.5	63.5	35	35.4	1	5	135	0.00	30.275 
10:15	63.9	63.9	63.9	35	35.7	1	3	135	0.00	30.276 
10:20	64.3	64.3	64.3	37	37.5	1	2	135	0.00	30.276 
10:25	64.7	64.7	64.7	36	37.1	1	4	135	0.00	30.276 
10:30	65.0	65.0	65.0	34	35.9	1	3	112	0.00	30.275 
10:35	65.0	65.0	65.0	37	38.1	1	5	112	0.00	30.275 
10:40	65.2	65.2	65.2	31	33.8	1	5	112	0.00	30.275 
10:45	65.2	65.2	65.2	34	36.1	1	3	112	0.00	30.274 
10:50	65.3	65.3	65.3	31	33.9	1	2	112	0.00	30.274 
10:55	65.6	65.6	65.6	32	34.9	1	4	112	0.00	30.274 
11:00	65.6	65.6	65.6	34	36.5	1	3	90	0.00	30.268 
11:05	65.5	65.5	65.5	34	36.4	1	3	90	0.00	30.268 
11:10	65.0	65.0	65.0	32	34.4	1	3	315	0.00	30.268 
11:15	65.0	65.0	65.0	32	34.4	2	10	90	0.00	30.265 
11:20	65.0	65.0	65.0	35	36.7	2	6	90	0.00	30.265 
11:25	65.3	65.3	65.3	30	33.1	1	5	90	0.00	30.265 
11:30	65.6	65.6	65.6	35	37.2	1	4	338	0.00	30.257 
11:35	66.0	66.0	66.0	32	35.3	1	4	112	0.00	30.257 
11:40	66.4	66.4	66.4	33	36.4	1	5	112	0.00	30.257 
11:45	66.4	66.4	66.4	30	34.0	1	4	112	0.00	30.257 
11:50	66.4	66.4	66.4	30	34.0	2	5	112	0.00	30.257 
11:55	66.3	66.3	66.3	28	32.2	2	5	112	0.00	30.257 
12:00	66.3	66.3	66.3	34	37.1	1	7	90	0.00	30.249 
12:05	66.3	66.3	66.3	33	36.3	2	7	90	0.00	30.249 
12:10	66.3	66.3	66.3	36	38.5	2	7	90	0.00	30.249 
12:15	66.4	66.4	66.4	34	37.2	1	3	112	0.00	30.248 
12:20	66.6	66.6	66.6	36	38.8	1	4	112	0.00	30.248 
12:25	66.9	66.9	66.9	35	38.4	1	4	90	0.00	30.248 
12:30	67.3	67.3	67.3	33	37.2	1	4	112	0.00	30.245 
12:35	67.4	67.4	67.4	33	37.3	1	5	112	0.00	30.245 
12:40	67.6	67.6	67.6	39	41.8	1	3	112	0.00	30.245 
12:45	67.8	67.8	67.8	36	39.9	1	3	112	0.00	30.248 
12:50	67.9	67.9	67.9	35	39.2	1	4	112	0.00	30.248 
12:55	67.9	67.9	67.9	32	36.9	2	5	112	0.00	30.248 
13:00	67.4	67.4	67.4	32	36.5	2	5	90	0.00	30.246 
13:05	67.1	67.1	67.1	31	35.4	2	5	112	0.00	30.246 
13:10	67.1	67.1	67.1	38	40.6	1	2	135	0.00	30.246 
13:15	66.9	66.9	66.9	33	36.9	3	6	90	0.00	30.239 
13:20	66.9	66.9	66.9	34	37.6	1	5	90	0.00	30.239 
13:25	67.1	67.1	67.1	34	37.8	1	3	112	0.00	30.239 
13:30	67.4	67.4	67.4	36	39.5	1	4	112	0.00	30.237 
13:35	67.6	67.6	67.6	31	35.9	1	3	112	0.00	30.237 
13:40	67.9	67.9	67.9	33	37.7	1	6	112	0.00	30.237 
13:45	68.1	68.1	68.1	31	36.3	1	4	112	0.00	30.233 
13:50	68.1	68.1	68.1	32	37.1	2	5	112	0.00	30.233 
13:55	68.1	68.1	68.1	35	39.4	1	4	112	0.00	30.233 
14:00	68.3	68.3	68.3	37	41.0	2	5	90	0.00	30.218 
14:05	68.4	68.4	68.4	33	38.2	1	4	90	0.00	30.218 
14:10	68.6	68.6	68.6	34	39.1	0	2	90	0.00	30.218 
14:15	68.4	68.4	68.4	31	36.6	2	7	112	0.00	30.218 
14:20	68.4	68.4	68.4	35	39.7	1	6	112	0.00	30.218 
14:25	68.8	68.8	68.8	38	42.1	1	3	68	0.00	30.218 
14:30	68.4	68.4	68.4	31	36.6	3	10	90	0.00	30.215 
14:35	68.3	68.3	68.3	32	37.3	2	7	135	0.00	30.215 
14:40	68.3	68.3	68.3	32	37.3	3	7	90	0.00	30.215 
14:45	68.3	68.3	68.3	34	38.8	1	6	90	0.00	30.204 
14:50	68.6	68.6	68.6	33	38.3	2	5	90	0.00	30.204 
14:55	68.8	68.8	68.8	32	37.7	1	6	112	0.00	30.204 
15:00	68.9	68.9	68.9	35	40.1	1	5	90	0.00	30.202 
15:05	69.1	69.1	69.1	33	38.8	2	6	90	0.00	30.202 
15:10	69.4	69.4	69.4	37	42.0	1	3	248	0.00	30.202 
15:15	69.6	69.6	69.6	32	38.4	2	6	248	0.00	30.193 
15:20	69.6	69.6	69.6	34	40.0	1	4	90	0.00	30.193 
15:25	69.4	69.4	69.4	28	34.9	3	6	112	0.00	30.193 
15:30	69.4	69.4	69.4	35	40.6	1	7	90	0.00	30.186 
15:35	69.4	69.4	69.4	32	38.3	1	5	90	0.00	30.186 
15:40	69.4	69.4	69.4	32	38.3	1	4	90	0.00	30.186 
15:45	69.6	69.6	69.6	31	37.6	1	5	112	0.00	30.176 
15:50	69.6	69.6	69.6	35	40.7	1	4	112	0.00	30.176 
15:55	69.8	69.8	69.8	31	37.8	2	5	112	0.00	30.176 
16:00	69.6	69.6	69.6	31	37.6	2	6	90	0.00	30.174 
16:05	69.4	69.4	69.4	34	39.8	2	5	112	0.00	30.174 
16:10	69.8	69.8	69.8	37	42.3	1	5	90	0.00	30.174 
16:15	70.1	70.1	70.1	33	39.7	1	5	90	0.00	30.170 
16:20	70.3	70.3	70.3	32	39.0	1	3	90	0.00	30.170 
16:25	70.1	70.1	70.1	32	38.9	2	5	90	0.00	30.170 
16:30	69.9	69.9	69.9	33	39.5	2	5	90	0.00	30.167 
16:35	69.9	69.9	69.9	33	39.5	1	6	90	0.00	30.167 
16:40	69.6	69.6	69.6	32	38.4	2	6	90	0.00	30.167 
16:45	69.9	69.9	69.9	36	41.7	0	2	112	0.00	30.157 
16:50	70.1	70.1	70.1	34	40.4	2	12	90	0.00	30.157 
16:55	70.3	70.3	70.3	34	40.6	1	3	90	0.00	30.157 
17:00	70.3	70.3	70.3	31	38.2	2	4	112	0.00	30.155 
17:05	70.1	70.1	70.1	35	41.2	1	3	135	0.00	30.155 
17:10	70.1	70.1	70.1	34	40.4	1	4	112	0.00	30.155 
17:15	69.8	69.8	69.8	32	38.6	2	5	112	0.00	30.159 
17:20	69.6	69.6	69.6	32	38.4	1	3	112	0.00	30.159 
17:25	69.6	69.6	69.6	32	38.4	1	5	112	0.00	30.159 
17:30	69.6	69.6	69.6	34	40.0	1	2	112	0.00	30.155 
17:35	69.3	69.3	69.3	32	38.2	1	4	68	0.00	30.155 
17:40	69.3	69.3	69.3	34	39.7	0	3	45	0.00	30.155 
17:45	69.3	69.3	69.3	34	39.7	1	3	68	0.00	30.151 
17:50	69.1	69.1	69.1	35	40.3	1	3	22	0.00	30.151 
17:55	68.9	68.9	68.9	36	40.8	1	3	270	0.00	30.151 
18:00	68.9	68.9	68.9	33	38.6	2	6	270	0.00	30.141 
18:05	68.9	68.9	68.9	36	40.8	0	2	68	0.00	30.141 
18:10	68.8	68.8	68.8	35	40.0	1	5	90	0.00	30.141 
18:15	68.6	68.6	68.6	35	39.8	1	4	68	0.00	30.132 
18:20	68.4	68.4	68.4	36	40.4	1	4	90	0.00	30.132 
18:25	68.6	68.6	68.6	37	41.3	2	6	90	0.00	30.132 
18:30	68.6	68.6	68.6	36	40.6	1	4	112	0.00	30.122 
18:35	68.6	68.6	68.6	34	39.1	1	4	90	0.00	30.122 
18:40	68.4	68.4	68.4	33	38.2	1	4	112	0.00	30.122 
18:45	68.1	68.1	68.1	33	37.9	1	4	270	0.00	30.114 
18:50	67.9	67.9	67.9	33	37.7	1	9	68	0.00	30.114 
18:55	67.8	67.8	67.8	32	36.9	2	4	112	0.00	30.114 
19:00	67.8	67.8	67.8	33	37.6	1	4	112	0.00	30.109 
19:05	67.6	67.6	67.6	33	37.5	2	5	112	0.00	30.109 
19:10	67.4	67.4	67.4	34	38.1	2	7	112	0.00	30.109 
19:15	67.4	67.4	67.4	34	38.1	2	6	135	0.00	30.095 
19:20	67.3	67.3	67.3	34	38.0	1	5	112	0.00	30.095 
19:25	67.3	67.3	67.3	33	37.2	1	6	112	0.00	30.095 
19:30	67.3	67.3	67.3	34	38.0	2	6	112	0.00	30.088 
19:35	67.3	67.3	67.3	35	38.7	1	4	112	0.00	30.088 
19:40	67.1	67.1	67.1	35	38.5	1	3	90	0.00	30.088 
19:45	66.9	66.9	66.9	35	38.4	1	3	112	0.00	30.089 
19:50	66.8	66.8	66.8	35	38.3	1	3	112	0.00	30.089 
19:55	66.8	66.8	66.8	37	39.7	0	2	112	0.00	30.089 
20:00	66.6	66.6	66.6	36	38.8	1	3	112	0.00	30.088 
20:05	66.4	66.4	66.4	37	39.3	1	3	112	0.00	30.088 
20:10	66.4	66.4	66.4	37	39.3	0	4	112	0.00	30.088 
20:15	66.3	66.3	66.3	38	39.9	0	2	112	0.00	30.076 
20:20	66.1	66.1	66.1	38	39.7	1	3	135	0.00	30.076 
20:25	66.0	66.0	66.0	39	40.3	0	2	135	0.00	30.076 
20:30	65.8	65.8	65.8	39	40.1	1	3	135	0.00	30.067 
20:35	65.6	65.6	65.6	39	40.0	0	3	135	0.00	30.067 
20:40	65.5	65.5	65.5	39	39.9	0	2	135	0.00	30.067 
20:45	65.3	65.3	65.3	40	40.4	0	3	90	0.00	30.079 
20:50	65.3	65.3	65.3	40	40.4	0	2	90	0.00	30.079 
20:55	65.2	65.2	65.2	41	40.9	0	1	90	0.00	30.079 
21:00	65.0	65.0	65.0	41	40.7	0	2	90	0.00	30.080 
21:05	64.7	64.7	64.7	42	41.1	0	1	90	0.00	30.080 
21:10	64.5	64.5	64.5	42	40.9	0	1	90	0.00	30.080 
21:15	64.3	64.3	64.3	43	41.3	0	1	90	0.00	30.074 
21:20	64.2	64.2	64.2	43	41.2	0	2	90	0.00	30.074 
21:25	63.9	63.9	63.9	43	41.0	0	1	90	0.00	30.074 
21:30	63.7	63.7	63.7	44	41.4	0	1	90	0.00	30.076 
21:35	63.5	63.5	63.5	44	41.2	0	1	90	0.00	30.076 
21:40	63.2	63.2	63.2	45	41.5	0	1	90	0.00	30.076 
21:45	63.1	63.1	63.1	46	42.0	0	1	90	0.00	30.075 
21:50	62.9	62.9	62.9	47	42.4	0	1	90	0.00	30.075 
21:55	62.6	62.6	62.6	47	42.1	0	1	90	0.00	30.075 
22:00	62.4	62.4	62.4	47	41.9	0	3	90	0.00	30.073 
22:05	62.3	62.3	62.3	48	42.4	0	1	90	0.00	30.073 
22:10	62.1	62.1	62.1	48	42.2	0	1	90	0.00	30.073 
22:15	62.1	62.1	62.1	47	41.6	0	3	90	0.00	30.076 
22:20	62.1	62.1	62.1	46	41.1	0	3	90	0.00	30.076 
22:25	62.1	62.1	62.1	46	41.1	0	2	112	0.00	30.076 
22:30	62.3	62.3	62.3	46	41.3	0	1	112	0.00	30.092 
22:35	62.3	62.3	62.3	46	41.3	0	1	112	0.00	30.092 
22:40	62.4	62.4	62.4	46	41.3	0	1	112	0.00	30.092 
22:45	62.4	62.4	62.4	46	41.3	0	0	---	0.00	30.103 
22:50	62.3	62.3	62.3	47	41.8	0	1	112	0.00	30.103 
22:55	62.3	62.3	62.3	47	41.8	0	1	112	0.00	30.103 
23:00	62.1	62.1	62.1	47	41.6	0	1	112	0.00	30.095 
23:05	62.0	62.0	62.0	48	42.1	0	0	---	0.00	30.095 
23:10	61.8	61.8	61.8	49	42.4	0	0	---	0.00	30.095 
23:15	61.6	61.6	61.6	48	41.7	0	0	---	0.00	30.108 
23:20	61.6	61.6	61.6	49	42.3	0	1	112	0.00	30.108 
23:25	61.5	61.5	61.5	50	42.7	1	5	112	0.00	30.108 
23:30	61.5	61.5	61.5	50	42.7	0	2	112	0.00	30.096 
23:35	61.5	61.5	61.5	51	43.2	0	1	112	0.00	30.096 
23:40	61.3	61.3	61.3	52	43.5	0	1	112	0.00	30.096 
23:45	61.0	61.0	61.0	54	44.2	2	5	112	0.00	30.073 
23:50	60.9	60.9	60.9	55	44.6	2	5	90	0.00	30.073 
23:55	60.4	60.4	60.4	57	45.1	1	5	90	0.00	30.073 

CoCoRaHS
IN-AL-39
A2 Web Hosting
Creative Commons License
GoDaddy
search engine by freefind advanced

loaded 2018-11-13 23:23:44 • last modified 2010-11-18 10:43:29
Privacy PolicyDisclaimer
• wx.awcolley.com is powered by PmWiki v.2002016 •
• all content (unless otherwise noted) © 2018 A W Colley